createdAt,value
2024-01-07T00:00:04.263Z,87.29
2024-01-07T00:05:08.697Z,87.49
2024-01-07T00:10:11.964Z,87.66
2024-01-07T00:15:15.129Z,87.94
2024-01-07T00:20:18.337Z,77.16
2024-01-07T00:25:21.576Z,63.89
2024-01-07T00:30:24.824Z,56.25
2024-01-07T00:35:27.961Z,51.63
2024-01-07T00:40:31.182Z,50.34
2024-01-07T00:45:34.233Z,49.74
2024-01-07T00:50:37.398Z,48.86
2024-01-07T00:55:40.510Z,47.23
2024-01-07T01:00:43.840Z,46.06
2024-01-07T01:05:47.258Z,45.54
2024-01-07T01:10:50.243Z,45.88
2024-01-07T01:15:53.915Z,44.47
2024-01-07T01:20:57.693Z,42.94
2024-01-07T01:26:00.805Z,41.49
2024-01-07T01:31:04.246Z,40.00
2024-01-07T01:36:08.450Z,40.02
2024-01-07T01:41:11.558Z,41.30
2024-01-07T01:46:15.293Z,40.08
2024-01-07T01:51:19.240Z,39.64
2024-01-07T01:56:23.972Z,39.25
2024-01-07T02:01:27.866Z,37.66
2024-01-07T02:06:31.608Z,38.70
2024-01-07T02:11:34.816Z,38.76
2024-01-07T02:16:37.921Z,38.28
2024-01-07T02:21:40.951Z,38.23
2024-01-07T02:26:44.143Z,38.24
2024-01-07T02:31:47.263Z,37.50
2024-01-07T02:36:50.529Z,37.58
2024-01-07T02:41:53.584Z,37.60
2024-01-07T02:46:56.582Z,37.40
2024-01-07T02:51:59.603Z,37.85
2024-01-07T02:57:02.835Z,38.64
2024-01-07T03:02:05.975Z,37.77
2024-01-07T03:07:09.267Z,37.63
2024-01-07T03:12:12.324Z,36.76
2024-01-07T03:17:18.438Z,37.73
2024-01-07T03:22:21.621Z,36.70
2024-01-07T03:27:24.766Z,36.33
2024-01-07T03:32:27.953Z,36.10
2024-01-07T03:37:30.958Z,35.99
2024-01-07T03:42:34.101Z,35.57
2024-01-07T03:47:37.137Z,35.45
2024-01-07T03:52:40.378Z,35.59
2024-01-07T03:57:43.399Z,35.06
2024-01-07T04:02:46.496Z,35.57
2024-01-07T04:07:49.708Z,36.24
2024-01-07T04:12:52.855Z,35.34
2024-01-07T04:17:56.090Z,35.99
2024-01-07T04:22:59.581Z,35.58
2024-01-07T04:28:02.791Z,35.24
2024-01-07T04:33:06.018Z,35.78
2024-01-07T04:38:09.899Z,35.77
2024-01-07T04:43:13.044Z,34.71
2024-01-07T04:48:16.435Z,36.59
2024-01-07T04:53:19.542Z,36.24
2024-01-07T04:58:22.538Z,37.09
2024-01-07T05:03:25.737Z,37.64
2024-01-07T05:08:29.742Z,36.01
2024-01-07T05:13:32.992Z,36.56
2024-01-07T05:18:36.346Z,35.70
2024-01-07T05:23:41.056Z,35.12
2024-01-07T05:28:44.063Z,35.37
2024-01-07T05:33:47.335Z,34.81
2024-01-07T05:38:50.480Z,34.27
2024-01-07T05:43:53.592Z,34.24
2024-01-07T05:48:57.394Z,34.24
2024-01-07T05:54:00.633Z,34.07
2024-01-07T05:59:03.733Z,34.99
2024-01-07T06:04:06.859Z,35.02
2024-01-07T06:09:10.159Z,35.14
2024-01-07T06:14:13.675Z,35.66
2024-01-07T06:19:20.615Z,35.71
2024-01-07T06:24:23.786Z,35.84
2024-01-07T06:29:26.789Z,37.10
2024-01-07T06:34:29.989Z,36.58
2024-01-07T06:39:35.812Z,36.49
2024-01-07T06:44:38.880Z,35.63
2024-01-07T06:49:41.956Z,36.36
2024-01-07T06:54:45.154Z,35.70
2024-01-07T06:59:48.412Z,36.14
2024-01-07T07:04:52.805Z,35.87
2024-01-07T07:09:56.176Z,35.64
2024-01-07T07:14:59.401Z,35.76
2024-01-07T07:20:02.671Z,34.85
2024-01-07T07:25:06.899Z,34.69
2024-01-07T07:30:10.178Z,35.50
2024-01-07T07:35:13.557Z,34.13
2024-01-07T07:40:16.749Z,33.23
2024-01-07T07:45:19.887Z,32.49
2024-01-07T07:50:23.130Z,31.80
2024-01-07T07:55:26.501Z,30.78
2024-01-07T08:00:29.860Z,29.37
2024-01-07T08:05:33.261Z,28.88
2024-01-07T08:10:36.669Z,29.97
2024-01-07T08:15:39.798Z,30.21
2024-01-07T08:20:43.100Z,30.06
2024-01-07T08:25:46.813Z,29.81
2024-01-07T08:30:50.943Z,31.95
2024-01-07T08:35:54.053Z,33.24
2024-01-07T08:40:57.161Z,35.43
2024-01-07T08:46:00.326Z,37.63
2024-01-07T08:51:04.564Z,39.66
2024-01-07T08:56:08.229Z,36.80
2024-01-07T09:01:11.564Z,38.00
2024-01-07T09:06:15.122Z,38.60
2024-01-07T09:11:21.141Z,38.56
2024-01-07T09:16:24.368Z,38.71
2024-01-07T09:21:27.962Z,35.65
2024-01-07T09:26:31.184Z,37.20
2024-01-07T09:31:34.488Z,36.65
2024-01-07T09:36:38.089Z,34.44
2024-01-07T09:41:41.629Z,34.25
2024-01-07T09:46:50.897Z,36.43
2024-01-07T09:52:00.926Z,36.45
2024-01-07T09:57:05.640Z,36.68
2024-01-07T10:02:09.221Z,34.64
2024-01-07T10:07:12.377Z,36.11
2024-01-07T10:12:16.716Z,36.61
2024-01-07T10:17:20.145Z,35.44
2024-01-07T10:22:23.625Z,35.82
2024-01-07T10:27:27.014Z,35.98
2024-01-07T10:32:30.583Z,35.88
2024-01-07T10:37:33.849Z,32.70
2024-01-07T10:42:39.628Z,32.21
2024-01-07T10:47:45.639Z,33.92
2024-01-07T10:52:58.755Z,33.43
2024-01-07T10:58:04.411Z,35.43
2024-01-07T11:03:21.000Z,35.22
2024-01-07T11:08:35.790Z,35.72
2024-01-07T11:13:40.426Z,37.02
2024-01-07T11:18:51.042Z,35.17
2024-01-07T11:23:57.857Z,35.73
2024-01-07T11:29:01.982Z,36.13
2024-01-07T11:34:05.367Z,34.75
2024-01-07T11:39:10.766Z,34.93
2024-01-07T11:44:16.037Z,34.75
2024-01-07T11:49:19.287Z,35.12
2024-01-07T11:54:22.439Z,34.07
2024-01-07T11:59:25.552Z,35.15
2024-01-07T12:04:29.818Z,34.39
2024-01-07T12:09:33.360Z,35.20
2024-01-07T12:14:36.824Z,36.02
2024-01-07T12:19:41.847Z,36.52
2024-01-07T12:24:45.410Z,37.79
2024-01-07T12:29:56.450Z,37.44
2024-01-07T12:35:00.734Z,37.78
2024-01-07T12:40:05.524Z,37.07
2024-01-07T12:45:12.803Z,37.57
2024-01-07T12:50:17.870Z,36.32
2024-01-07T12:55:21.074Z,36.27
2024-01-07T13:00:24.532Z,36.35
2024-01-07T13:05:28.065Z,35.25
2024-01-07T13:10:31.399Z,35.01
2024-01-07T13:15:34.532Z,35.93
2024-01-07T13:20:39.355Z,34.69
2024-01-07T13:25:42.463Z,36.59
2024-01-07T13:30:45.753Z,38.28
2024-01-07T13:35:48.909Z,37.46
2024-01-07T13:40:52.806Z,37.92
2024-01-07T13:45:56.185Z,37.02
2024-01-07T13:50:59.546Z,37.53
2024-01-07T13:56:02.610Z,35.87
2024-01-07T14:01:07.193Z,34.16
2024-01-07T14:06:10.308Z,34.13
2024-01-07T14:11:13.431Z,33.63
2024-01-07T14:16:16.731Z,32.49
2024-01-07T14:21:20.372Z,32.28
2024-01-07T14:26:25.118Z,31.91
2024-01-07T14:31:28.476Z,32.97
2024-01-07T14:36:32.072Z,32.74
2024-01-07T14:41:35.152Z,32.34
2024-01-07T14:46:38.586Z,32.48
2024-01-07T14:51:41.912Z,31.70
2024-01-07T14:56:45.191Z,32.12
2024-01-07T15:01:48.293Z,31.78
2024-01-07T15:06:51.548Z,32.48
2024-01-07T15:11:56.395Z,33.32
2024-01-07T15:17:00.302Z,32.88
2024-01-07T15:22:04.629Z,32.73
2024-01-07T15:27:08.041Z,32.84
2024-01-07T15:32:11.535Z,33.24
2024-01-07T15:37:14.787Z,32.03
2024-01-07T15:42:18.285Z,31.76
2024-01-07T15:47:21.949Z,31.72
2024-01-07T15:52:25.176Z,31.51
2024-01-07T15:57:28.437Z,30.74
2024-01-07T16:02:31.830Z,32.08
2024-01-07T16:07:35.167Z,32.49
2024-01-07T16:12:38.764Z,30.87
2024-01-07T16:17:43.890Z,30.98
2024-01-07T16:22:47.176Z,31.27
2024-01-07T16:27:50.547Z,31.61
2024-01-07T16:32:53.854Z,31.59
2024-01-07T16:37:57.205Z,30.65
2024-01-07T16:43:03.979Z,31.91
2024-01-07T16:48:07.658Z,31.00
2024-01-07T16:53:10.927Z,31.72
2024-01-07T16:58:15.102Z,32.16
2024-01-07T17:03:18.136Z,32.64
2024-01-07T17:08:21.429Z,33.69
2024-01-07T17:13:24.549Z,32.90
2024-01-07T17:18:27.770Z,33.29
2024-01-07T17:23:31.238Z,33.16
2024-01-07T17:28:34.434Z,32.94
2024-01-07T17:33:38.184Z,32.40
2024-01-07T17:38:41.386Z,32.68
2024-01-07T17:43:44.836Z,33.10
2024-01-07T17:48:48.232Z,32.39
2024-01-07T17:53:51.772Z,32.96
2024-01-07T17:58:55.120Z,33.23
2024-01-07T18:03:58.354Z,33.91
2024-01-07T18:09:01.521Z,33.83
2024-01-07T18:14:04.913Z,33.69
2024-01-07T18:19:08.013Z,32.34
2024-01-07T18:24:10.986Z,32.25
2024-01-07T18:29:14.316Z,31.74
2024-01-07T18:34:17.585Z,31.35
2024-01-07T18:39:20.641Z,30.63
2024-01-07T18:44:26.916Z,31.08
2024-01-07T18:49:30.247Z,32.25
2024-01-07T18:54:33.686Z,32.14
2024-01-07T18:59:37.278Z,33.89
2024-01-07T19:04:40.891Z,32.08
2024-01-07T19:09:43.993Z,32.60
2024-01-07T19:14:47.100Z,31.79
2024-01-07T19:19:51.365Z,31.01
2024-01-07T19:24:54.863Z,30.86
2024-01-07T19:29:57.837Z,31.19
2024-01-07T19:35:01.008Z,32.91
2024-01-07T19:40:04.817Z,33.52
2024-01-07T19:45:08.693Z,33.43
2024-01-07T19:50:11.962Z,32.12
2024-01-07T19:55:15.252Z,31.93
2024-01-07T20:00:19.448Z,32.18
2024-01-07T20:05:22.615Z,31.34
2024-01-07T20:10:25.920Z,31.60
2024-01-07T20:15:29.187Z,31.73
2024-01-07T20:20:35.714Z,31.09
2024-01-07T20:25:39.856Z,31.84
2024-01-07T20:30:43.168Z,32.57
2024-01-07T20:35:46.355Z,30.89
2024-01-07T20:40:49.497Z,32.27
2024-01-07T20:45:53.406Z,32.06
2024-01-07T20:50:56.525Z,31.91
2024-01-07T20:56:00.342Z,31.88
2024-01-07T21:01:03.939Z,31.44
2024-01-07T21:06:07.367Z,32.89
2024-01-07T21:11:10.569Z,32.74
2024-01-07T21:16:13.806Z,33.45
2024-01-07T21:21:17.217Z,32.59
2024-01-07T21:26:20.369Z,32.21
2024-01-07T21:31:23.746Z,31.87
2024-01-07T21:36:26.859Z,33.17
2024-01-07T21:41:29.863Z,32.68
2024-01-07T21:46:35.452Z,32.55
2024-01-07T21:51:38.561Z,31.94
2024-01-07T21:56:41.760Z,31.30
2024-01-07T22:01:45.020Z,31.78
2024-01-07T22:06:48.333Z,32.23
2024-01-07T22:11:51.597Z,30.97
2024-01-07T22:16:54.925Z,31.21
2024-01-07T22:22:00.049Z,30.73
2024-01-07T22:27:04.232Z,30.45
2024-01-07T22:32:07.459Z,30.74
2024-01-07T22:37:10.714Z,29.77
2024-01-07T22:42:13.827Z,28.97
2024-01-07T22:47:17.118Z,29.93
2024-01-07T22:52:21.336Z,28.71
2024-01-07T22:57:26.065Z,29.75
2024-01-07T23:02:29.281Z,30.44
2024-01-07T23:07:32.442Z,29.93
2024-01-07T23:12:35.655Z,30.11
2024-01-07T23:17:39.046Z,32.39
2024-01-07T23:22:42.233Z,33.67
2024-01-07T23:27:45.494Z,32.10
2024-01-07T23:32:48.663Z,31.60
2024-01-07T23:37:51.953Z,31.09
2024-01-07T23:42:55.126Z,30.61
2024-01-07T23:47:58.270Z,30.58
2024-01-07T23:53:01.454Z,30.95
2024-01-07T23:58:04.963Z,30.58
